createdAt,value
2023-09-06T00:00:09.766Z,101788.31
2023-09-06T00:02:37.539Z,101782.28
2023-09-06T00:05:06.456Z,101783.41
2023-09-06T00:07:35.756Z,101793.28
2023-09-06T00:10:03.620Z,101788.09
2023-09-06T00:12:31.542Z,101791.91
2023-09-06T00:14:59.318Z,101787.00
2023-09-06T00:17:27.155Z,101784.53
2023-09-06T00:19:54.948Z,101795.78
2023-09-06T00:22:22.767Z,101790.59
2023-09-06T00:24:51.981Z,101792.78
2023-09-06T00:27:19.776Z,101787.59
2023-09-06T00:29:48.227Z,101794.16
2023-09-06T00:32:16.019Z,101781.00
2023-09-06T00:34:43.815Z,101780.72
2023-09-06T00:37:11.711Z,101783.75
2023-09-06T00:39:40.116Z,101775.50
2023-09-06T00:42:09.316Z,101780.47
2023-09-06T00:44:37.042Z,101779.09
2023-09-06T00:47:05.259Z,101792.81
2023-09-06T00:49:33.182Z,101791.16
2023-09-06T00:52:01.079Z,101795.28
2023-09-06T00:54:29.259Z,101797.19
2023-09-06T00:56:57.194Z,101791.19
2023-09-06T00:59:28.115Z,101794.19
2023-09-06T01:01:56.510Z,101787.34
2023-09-06T01:04:26.574Z,101790.09
2023-09-06T01:06:58.853Z,101788.75
2023-09-06T01:09:27.380Z,101790.94
2023-09-06T01:11:55.108Z,101783.81
2023-09-06T01:14:22.923Z,101788.75
2023-09-06T01:16:55.602Z,101786.31
2023-09-06T01:19:27.945Z,101793.72
2023-09-06T01:22:06.723Z,101784.41
2023-09-06T01:24:36.529Z,101786.06
2023-09-06T01:27:06.673Z,101789.63
2023-09-06T01:29:36.058Z,101791.84
2023-09-06T01:32:06.354Z,101795.94
2023-09-06T01:34:34.265Z,101795.94
2023-09-06T01:37:02.065Z,101795.41
2023-09-06T01:39:29.816Z,101800.34
2023-09-06T01:41:58.981Z,101799.25
2023-09-06T01:44:28.186Z,101804.72
2023-09-06T01:46:56.135Z,101800.63
2023-09-06T01:49:24.072Z,101800.09
2023-09-06T01:51:51.866Z,101801.47
2023-09-06T01:54:19.861Z,101802.56
2023-09-06T01:56:47.660Z,101808.31
2023-09-06T01:59:16.795Z,101808.03
2023-09-06T02:01:44.670Z,101812.69
2023-09-06T02:04:12.569Z,101805.59
2023-09-06T02:06:40.481Z,101809.69
2023-09-06T02:09:08.428Z,101809.16
2023-09-06T02:11:36.241Z,101808.31
2023-09-06T02:14:04.015Z,101808.88
2023-09-06T02:16:33.190Z,101808.88
2023-09-06T02:19:01.110Z,101802.03
2023-09-06T02:21:29.652Z,101801.22
2023-09-06T02:23:58.089Z,101807.25
2023-09-06T02:26:25.938Z,101801.19
2023-09-06T02:28:53.686Z,101806.94
2023-09-06T02:31:21.565Z,101806.13
2023-09-06T02:33:50.733Z,101805.28
2023-09-06T02:36:18.491Z,101808.31
2023-09-06T02:38:48.279Z,101805.03
2023-09-06T02:41:16.252Z,101806.38
2023-09-06T02:43:43.982Z,101802.84
2023-09-06T02:46:13.601Z,101812.97
2023-09-06T02:48:42.088Z,101807.75
2023-09-06T02:51:11.496Z,101806.13
2023-09-06T02:53:45.343Z,101813.78
2023-09-06T02:56:15.146Z,101797.63
2023-09-06T02:58:44.081Z,101804.22
2023-09-06T03:01:20.750Z,101804.47
2023-09-06T03:03:52.426Z,101800.66
2023-09-06T03:06:33.589Z,101812.41
2023-09-06T03:09:01.960Z,101807.22
2023-09-06T03:11:29.684Z,101810.22
2023-09-06T03:13:58.465Z,101810.50
2023-09-06T03:16:26.490Z,101803.66
2023-09-06T03:18:55.304Z,101803.09
2023-09-06T03:21:25.325Z,101812.41
2023-09-06T03:23:54.006Z,101807.75
2023-09-06T03:26:23.989Z,101810.50
2023-09-06T03:28:56.228Z,101812.69
2023-09-06T03:31:26.255Z,101810.22
2023-09-06T03:33:54.207Z,101816.22
2023-09-06T03:36:26.073Z,101815.41
2023-09-06T03:38:56.637Z,101816.78
2023-09-06T03:41:24.459Z,101812.41
2023-09-06T03:43:55.144Z,101809.94
2023-09-06T03:46:23.641Z,101822.22
2023-09-06T03:48:51.662Z,101827.16
2023-09-06T03:51:20.076Z,101824.69
2023-09-06T03:53:48.882Z,101820.59
2023-09-06T03:56:18.092Z,101825.22
2023-09-06T03:58:45.892Z,101821.13
2023-09-06T04:01:16.899Z,101824.13
2023-09-06T04:03:45.048Z,101823.31
2023-09-06T04:06:13.148Z,101828.22
2023-09-06T04:08:41.183Z,101833.16
2023-09-06T04:11:11.905Z,101826.56
2023-09-06T04:13:44.631Z,101824.94
2023-09-06T04:16:12.576Z,101831.50
2023-09-06T04:18:42.838Z,101829.84
2023-09-06T04:21:12.135Z,101827.09
2023-09-06T04:23:40.540Z,101833.13
2023-09-06T04:26:08.882Z,101836.13
2023-09-06T04:28:37.142Z,101829.50
2023-09-06T04:31:06.620Z,101834.97
2023-09-06T04:33:34.378Z,101842.63
2023-09-06T04:36:03.928Z,101839.91
2023-09-06T04:38:32.484Z,101832.22
2023-09-06T04:41:00.950Z,101842.34
2023-09-06T04:43:29.261Z,101847.00
2023-09-06T04:45:57.301Z,101848.34
2023-09-06T04:48:26.657Z,101836.31
2023-09-06T04:50:57.561Z,101826.97
2023-09-06T04:53:25.366Z,101842.88
2023-09-06T04:55:53.949Z,101851.06
2023-09-06T04:58:21.878Z,101848.88
2023-09-06T05:00:50.518Z,101859.25
2023-09-06T05:03:20.029Z,101857.59
2023-09-06T05:05:49.979Z,101864.41
2023-09-06T05:08:18.086Z,101865.50
2023-09-06T05:10:45.887Z,101870.41
2023-09-06T05:13:13.747Z,101864.13
2023-09-06T05:15:41.721Z,101859.75
2023-09-06T05:18:10.237Z,101863.56
2023-09-06T05:20:40.522Z,101869.31
2023-09-06T05:23:10.985Z,101863.81
2023-09-06T05:25:39.374Z,101871.75
2023-09-06T05:28:09.378Z,101859.19
2023-09-06T05:30:39.893Z,101870.09
2023-09-06T05:33:08.638Z,101870.38
2023-09-06T05:35:36.564Z,101878.81
2023-09-06T05:38:05.344Z,101874.75
2023-09-06T05:40:35.751Z,101879.38
2023-09-06T05:43:05.185Z,101876.91
2023-09-06T05:45:33.324Z,101883.47
2023-09-06T05:48:01.234Z,101888.13
2023-09-06T05:50:29.289Z,101887.28
2023-09-06T05:52:57.327Z,101878.81
2023-09-06T05:55:25.414Z,101888.91
2023-09-06T05:57:54.717Z,101887.25
2023-09-06T06:00:23.732Z,101892.72
2023-09-06T06:02:52.071Z,101886.44
2023-09-06T06:05:20.681Z,101885.06
2023-09-06T06:07:48.603Z,101882.59
2023-09-06T06:10:16.405Z,101885.03
2023-09-06T06:12:44.501Z,101889.41
2023-09-06T06:15:14.722Z,101880.88
2023-09-06T06:17:43.267Z,101894.31
2023-09-06T06:20:12.599Z,101895.69
2023-09-06T06:22:41.372Z,101897.59
2023-09-06T06:25:11.531Z,101890.22
2023-09-06T06:27:40.558Z,101894.88
2023-09-06T06:30:10.053Z,101891.00
2023-09-06T06:32:39.549Z,101896.50
2023-09-06T06:35:09.993Z,101904.44
2023-09-06T06:37:37.812Z,101906.91
2023-09-06T06:40:07.294Z,101900.63
2023-09-06T06:42:35.588Z,101906.66
2023-09-06T06:45:05.778Z,101909.66
2023-09-06T06:47:33.617Z,101911.56
2023-09-06T06:50:07.152Z,101909.66
2023-09-06T06:52:37.383Z,101910.47
2023-09-06T06:55:06.123Z,101921.97
2023-09-06T06:57:34.563Z,101909.13
2023-09-06T07:00:06.849Z,101917.56
2023-09-06T07:02:36.035Z,101908.03
2023-09-06T07:05:05.928Z,101926.34
2023-09-06T07:07:33.731Z,101931.78
2023-09-06T07:10:02.696Z,101918.97
2023-09-06T07:12:30.551Z,101924.41
2023-09-06T07:14:59.621Z,101917.06
2023-09-06T07:17:27.451Z,101919.53
2023-09-06T07:19:55.366Z,101914.06
2023-09-06T07:22:24.575Z,101915.13
2023-09-06T07:24:52.677Z,101910.50
2023-09-06T07:27:22.125Z,101913.22
2023-09-06T07:29:50.025Z,101915.97
2023-09-06T07:32:17.745Z,101921.16
2023-09-06T07:34:46.266Z,101914.06
2023-09-06T07:37:13.989Z,101922.25
2023-09-06T07:39:43.136Z,101917.34
2023-09-06T07:42:10.923Z,101919.25
2023-09-06T07:44:38.724Z,101922.53
2023-09-06T07:47:06.606Z,101918.72
2023-09-06T07:49:34.662Z,101923.94
2023-09-06T07:52:06.216Z,101928.31
2023-09-06T07:54:34.275Z,101921.72
2023-09-06T07:57:03.531Z,101924.19
2023-09-06T07:59:31.327Z,101914.91
2023-09-06T08:01:59.151Z,101922.03
2023-09-06T08:04:27.081Z,101927.22
2023-09-06T08:06:57.016Z,101930.78
2023-09-06T08:09:25.639Z,101934.88
2023-09-06T08:11:53.662Z,101924.78
2023-09-06T08:14:22.978Z,101929.16
2023-09-06T08:16:50.867Z,101931.63
2023-09-06T08:19:18.726Z,101937.09
2023-09-06T08:21:46.530Z,101932.44
2023-09-06T08:24:14.358Z,101929.72
2023-09-06T08:26:42.175Z,101935.75
2023-09-06T08:29:09.976Z,101933.84
2023-09-06T08:31:40.167Z,101931.66
2023-09-06T08:34:08.126Z,101930.56
2023-09-06T08:36:35.932Z,101927.56
2023-09-06T08:39:04.271Z,101934.41
2023-09-06T08:41:34.059Z,101931.41
2023-09-06T08:44:07.365Z,101905.13
2023-09-06T08:46:40.704Z,101925.41
2023-09-06T08:49:11.412Z,101937.47
2023-09-06T08:51:40.455Z,101934.47
2023-09-06T08:54:08.582Z,101936.13
2023-09-06T08:56:37.086Z,101932.03
2023-09-06T08:59:07.546Z,101939.97
2023-09-06T09:01:39.032Z,101934.22
2023-09-06T09:04:10.772Z,101932.91
2023-09-06T09:06:43.801Z,101926.91
2023-09-06T09:09:17.548Z,101934.00
2023-09-06T09:11:47.234Z,101932.09
2023-09-06T09:14:22.546Z,101932.13
2023-09-06T09:16:56.818Z,101926.94
2023-09-06T09:19:26.608Z,101926.69
2023-09-06T09:21:56.374Z,101930.53
2023-09-06T09:24:29.027Z,101927.22
2023-09-06T09:26:58.347Z,101935.19
2023-09-06T09:29:26.251Z,101910.00
2023-09-06T09:31:54.052Z,101927.56
2023-09-06T09:34:22.833Z,101930.84
2023-09-06T09:36:53.146Z,101927.56
2023-09-06T09:39:27.094Z,101932.78
2023-09-06T09:41:59.337Z,101928.69
2023-09-06T09:44:28.222Z,101917.19
2023-09-06T09:46:58.607Z,101926.25
2023-09-06T09:49:27.574Z,101915.28
2023-09-06T09:51:56.886Z,101913.94
2023-09-06T09:54:25.980Z,101916.13
2023-09-06T09:57:04.561Z,101922.72
2023-09-06T09:59:33.102Z,101919.44
2023-09-06T10:02:02.081Z,101916.97
2023-09-06T10:04:30.794Z,101918.34
2023-09-06T10:07:00.919Z,101913.16
2023-09-06T10:09:30.115Z,101918.66
2023-09-06T10:12:00.201Z,101912.38
2023-09-06T10:14:29.445Z,101915.09
2023-09-06T10:16:58.228Z,101911.81
2023-09-06T10:19:26.146Z,101912.66
2023-09-06T10:21:54.236Z,101903.88
2023-09-06T10:24:24.691Z,101905.53
2023-09-06T10:26:55.198Z,101894.28
2023-09-06T10:29:25.753Z,101906.88
2023-09-06T10:31:54.766Z,101897.84
2023-09-06T10:34:24.808Z,101908.78
2023-09-06T10:36:56.600Z,101906.28
2023-09-06T10:39:27.186Z,101909.00
2023-09-06T10:42:16.556Z,101897.22
2023-09-06T10:45:10.808Z,101897.75
2023-09-06T10:47:40.042Z,101892.25
2023-09-06T10:50:13.810Z,101895.25
2023-09-06T10:52:46.516Z,101891.38
2023-09-06T10:55:19.650Z,101886.13
2023-09-06T10:57:53.777Z,101886.69
2023-09-06T11:00:26.791Z,101901.44
2023-09-06T11:03:18.841Z,101899.78
2023-09-06T11:05:53.881Z,101893.16
2023-09-06T11:08:35.019Z,101882.44
2023-09-06T11:11:10.317Z,101890.94
2023-09-06T11:13:39.365Z,101890.38
2023-09-06T11:16:12.538Z,101888.16
2023-09-06T11:18:47.626Z,101889.28
2023-09-06T11:21:19.989Z,101883.50
2023-09-06T11:23:49.432Z,101884.56
2023-09-06T11:26:18.969Z,101883.44
2023-09-06T11:28:48.585Z,101880.66
2023-09-06T11:31:26.457Z,101880.63
2023-09-06T11:33:57.230Z,101883.09
2023-09-06T11:36:29.451Z,101884.69
2023-09-06T11:38:58.787Z,101872.84
2023-09-06T11:41:29.508Z,101868.72
2023-09-06T11:44:00.759Z,101870.34
2023-09-06T11:46:29.610Z,101867.59
2023-09-06T11:48:57.487Z,101870.06
2023-09-06T11:51:26.525Z,101874.16
2023-09-06T11:54:01.841Z,101866.47
2023-09-06T11:56:34.635Z,101860.16
2023-09-06T11:59:07.860Z,101863.38
2023-09-06T12:01:41.673Z,101867.47
2023-09-06T12:04:11.787Z,101867.16
2023-09-06T12:06:42.818Z,101855.25
2023-09-06T12:09:13.991Z,101858.19
2023-09-06T12:11:43.783Z,101860.88
2023-09-06T12:14:12.207Z,101853.19
2023-09-06T12:16:41.200Z,101859.50
2023-09-06T12:19:12.883Z,101851.25
2023-09-06T12:21:40.871Z,101859.19
2023-09-06T12:24:09.588Z,101848.72
2023-09-06T12:26:37.489Z,101845.69
2023-09-06T12:29:06.890Z,101851.13
2023-09-06T12:31:34.771Z,101843.06
2023-09-06T12:34:04.785Z,101840.81
2023-09-06T12:36:32.757Z,101834.66
2023-09-06T12:39:00.531Z,101841.22
2023-09-06T12:41:28.410Z,101832.38
2023-09-06T12:43:56.263Z,101832.91
2023-09-06T12:46:25.525Z,101827.69
2023-09-06T12:48:53.391Z,101824.88
2023-09-06T12:51:21.191Z,101830.59
2023-09-06T12:53:51.278Z,101826.16
2023-09-06T12:56:20.211Z,101823.91
2023-09-06T12:58:48.173Z,101815.56
2023-09-06T13:01:16.117Z,101821.31
2023-09-06T13:03:46.977Z,101817.16
2023-09-06T13:06:15.048Z,101818.41
2023-09-06T13:08:43.796Z,101825.47
2023-09-06T13:11:14.517Z,101815.81
2023-09-06T13:13:42.565Z,101812.78
2023-09-06T13:16:10.481Z,101824.00
2023-09-06T13:18:39.708Z,101820.94
2023-09-06T13:21:09.707Z,101822.28
2023-09-06T13:23:37.575Z,101813.72
2023-09-06T13:26:05.632Z,101808.59
2023-09-06T13:28:34.993Z,101803.53
2023-09-06T13:31:04.405Z,101815.88
2023-09-06T13:33:34.908Z,101809.50
2023-09-06T13:36:05.499Z,101805.03
2023-09-06T13:38:34.705Z,101803.09
2023-09-06T13:41:02.695Z,101804.72
2023-09-06T13:43:30.807Z,101797.19
2023-09-06T13:45:59.018Z,101790.78
2023-09-06T13:48:26.885Z,101804.81
2023-09-06T13:50:54.673Z,101800.94
2023-09-06T13:53:22.464Z,101798.19
2023-09-06T13:55:51.910Z,101797.59
2023-09-06T13:58:19.755Z,101793.72
2023-09-06T14:00:47.532Z,101796.69
2023-09-06T14:03:15.836Z,101791.41
2023-09-06T14:05:43.873Z,101787.75
2023-09-06T14:08:11.703Z,101785.50
2023-09-06T14:10:39.533Z,101786.97
2023-09-06T14:13:08.775Z,101791.03
2023-09-06T14:15:36.640Z,101778.91
2023-09-06T14:18:05.340Z,101787.03
2023-09-06T14:20:35.724Z,101787.56
2023-09-06T14:23:03.672Z,101787.56
2023-09-06T14:25:31.496Z,101783.69
2023-09-06T14:27:59.418Z,101792.78
2023-09-06T14:30:28.682Z,101790.53
2023-09-06T14:32:56.676Z,101780.63
2023-09-06T14:35:24.715Z,101781.44
2023-09-06T14:37:54.780Z,101783.91
2023-09-06T14:40:22.617Z,101774.50
2023-09-06T14:42:50.400Z,101783.28
2023-09-06T14:45:18.258Z,101780.53
2023-09-06T14:47:47.498Z,101776.66
2023-09-06T14:50:15.437Z,101775.03
2023-09-06T14:52:43.283Z,101782.97
2023-09-06T14:55:11.580Z,101776.66
2023-09-06T14:57:41.017Z,101779.63
2023-09-06T15:00:10.899Z,101778.50
2023-09-06T15:02:38.840Z,101773.50
2023-09-06T15:05:09.255Z,101777.06
2023-09-06T15:07:39.892Z,101779.81
2023-09-06T15:10:12.438Z,101783.09
2023-09-06T15:12:40.413Z,101773.72
2023-09-06T15:15:11.093Z,101771.25
2023-09-06T15:17:39.154Z,101770.94
2023-09-06T15:20:12.147Z,101748.28
2023-09-06T15:22:41.601Z,101764.34
2023-09-06T15:25:12.352Z,101771.72
2023-09-06T15:27:41.392Z,101770.06
2023-09-06T15:30:09.755Z,101767.81
2023-09-06T15:32:37.594Z,101768.94
2023-09-06T15:35:08.736Z,101769.25
2023-09-06T15:37:38.749Z,101770.06
2023-09-06T15:40:07.870Z,101773.34
2023-09-06T15:42:36.552Z,101776.09
2023-09-06T15:45:09.546Z,101772.22
2023-09-06T15:47:38.708Z,101770.28
2023-09-06T15:50:09.554Z,101766.41
2023-09-06T15:52:38.702Z,101764.47
2023-09-06T15:55:07.662Z,101763.13
2023-09-06T15:57:35.414Z,101769.47
2023-09-06T16:00:24.229Z,101761.50
2023-09-06T16:02:57.666Z,101762.31
2023-09-06T16:05:25.751Z,101767.53
2023-09-06T16:07:56.474Z,101764.56
2023-09-06T16:10:26.059Z,101769.78
2023-09-06T16:12:54.035Z,101771.19
2023-09-06T16:15:23.944Z,101772.84
2023-09-06T16:17:51.962Z,101772.84
2023-09-06T16:20:20.537Z,101750.44
2023-09-06T16:22:48.333Z,101766.50
2023-09-06T16:25:17.515Z,101770.06
2023-09-06T16:27:46.893Z,101766.50
2023-09-06T16:30:15.269Z,101765.19
2023-09-06T16:32:43.345Z,101765.19
2023-09-06T16:35:12.253Z,101763.53
2023-09-06T16:37:40.779Z,101761.91
2023-09-06T16:40:12.228Z,101758.34
2023-09-06T16:42:42.080Z,101760.28
2023-09-06T16:45:11.086Z,101763.03
2023-09-06T16:47:38.931Z,101766.09
2023-09-06T16:50:08.213Z,101754.56
2023-09-06T16:52:38.184Z,101755.88
2023-09-06T16:55:07.083Z,101755.38
2023-09-06T16:57:34.984Z,101761.69
2023-09-06T17:00:05.779Z,101766.69
2023-09-06T17:02:33.893Z,101757.88
2023-09-06T17:05:01.807Z,101760.44
2023-09-06T17:07:29.692Z,101757.69
2023-09-06T17:09:57.774Z,101751.66
2023-09-06T17:12:26.290Z,101752.47
2023-09-06T17:14:55.293Z,101755.53
2023-09-06T17:17:24.667Z,101741.66
2023-09-06T17:19:52.521Z,101757.78
2023-09-06T17:22:20.333Z,101761.97
2023-09-06T17:24:50.576Z,101745.75
2023-09-06T17:27:18.415Z,101745.22
2023-09-06T17:29:48.364Z,101740.84
2023-09-06T17:32:16.290Z,101744.72
2023-09-06T17:34:45.569Z,101748.59
2023-09-06T17:37:13.392Z,101734.69
2023-09-06T17:39:41.988Z,101752.78
2023-09-06T17:42:09.835Z,101753.06
2023-09-06T17:44:38.627Z,101748.69
2023-09-06T17:47:08.116Z,101744.28
2023-09-06T17:49:36.257Z,101754.81
2023-09-06T17:52:06.906Z,101747.34
2023-09-06T17:54:34.900Z,101750.41
2023-09-06T17:57:05.518Z,101752.34
2023-09-06T17:59:33.424Z,101751.03
2023-09-06T18:02:02.563Z,101753.47
2023-09-06T18:04:31.792Z,101756.53
2023-09-06T18:07:00.488Z,101753.78
2023-09-06T18:09:30.939Z,101759.63
2023-09-06T18:11:58.784Z,101761.56
2023-09-06T18:14:26.611Z,101770.13
2023-09-06T18:16:56.480Z,101768.50
2023-09-06T18:19:26.599Z,101763.28
2023-09-06T18:21:57.402Z,101772.97
2023-09-06T18:24:25.280Z,101772.97
2023-09-06T18:27:05.949Z,101771.34
2023-09-06T18:29:37.818Z,101773.88
2023-09-06T18:32:07.566Z,101769.19
2023-09-06T18:34:35.621Z,101774.19
2023-09-06T18:37:09.341Z,101778.06
2023-09-06T18:39:39.517Z,101783.03
2023-09-06T18:42:09.773Z,101772.34
2023-09-06T18:44:39.516Z,101783.66
2023-09-06T18:47:09.950Z,101788.63
2023-09-06T18:49:38.908Z,101791.69
2023-09-06T18:52:08.747Z,101797.50
2023-09-06T18:54:37.439Z,101790.66
2023-09-06T18:57:05.482Z,101775.41
2023-09-06T18:59:34.664Z,101795.94
2023-09-06T19:02:02.974Z,101800.94
2023-09-06T19:04:30.757Z,101796.81
2023-09-06T19:06:58.533Z,101805.38
2023-09-06T19:09:26.323Z,101806.81
2023-09-06T19:11:54.233Z,101808.22
2023-09-06T19:14:23.014Z,101810.75
2023-09-06T19:16:53.152Z,101810.75
2023-09-06T19:19:22.308Z,101814.09
2023-09-06T19:21:50.129Z,101813.59
2023-09-06T19:24:17.973Z,101808.38
2023-09-06T19:26:46.397Z,101813.38
2023-09-06T19:29:14.265Z,101810.09
2023-09-06T19:31:42.144Z,101817.53
2023-09-06T19:34:11.331Z,101818.94
2023-09-06T19:36:39.094Z,101821.16
2023-09-06T19:39:12.473Z,101819.53
2023-09-06T19:41:40.302Z,101828.91
2023-09-06T19:44:08.326Z,101825.63
2023-09-06T19:46:36.241Z,101824.00
2023-09-06T19:49:06.628Z,101814.19
2023-09-06T19:51:36.567Z,101818.28
2023-09-06T19:54:04.414Z,101817.44
2023-09-06T19:56:32.193Z,101818.03
2023-09-06T19:59:00.767Z,101814.19
2023-09-06T20:01:28.641Z,101819.16
2023-09-06T20:03:56.660Z,101826.59
2023-09-06T20:06:24.566Z,101817.31
2023-09-06T20:08:53.879Z,101809.34
2023-09-06T20:11:22.255Z,101820.06
2023-09-06T20:13:50.350Z,101818.72
2023-09-06T20:16:18.205Z,101816.78
2023-09-06T20:18:46.743Z,101801.81
2023-09-06T20:21:14.552Z,101815.44
2023-09-06T20:23:42.508Z,101824.81
2023-09-06T20:26:11.913Z,101825.91
2023-09-06T20:28:39.717Z,101834.47
2023-09-06T20:31:09.006Z,101832.00
2023-09-06T20:33:37.005Z,101808.81
2023-09-06T20:36:05.887Z,101827.09
2023-09-06T20:38:34.495Z,101836.47
2023-09-06T20:41:03.980Z,101830.44
2023-09-06T20:43:34.460Z,101830.75
2023-09-06T20:46:02.461Z,101835.41
2023-09-06T20:48:30.902Z,101824.00
2023-09-06T20:51:03.129Z,101835.19
2023-09-06T20:53:32.493Z,101842.09
2023-09-06T20:56:01.040Z,101836.03
2023-09-06T20:58:29.060Z,101840.72
2023-09-06T21:00:58.471Z,101835.81
2023-09-06T21:03:27.060Z,101839.69
2023-09-06T21:05:58.932Z,101832.84
2023-09-06T21:08:26.993Z,101824.66
2023-09-06T21:10:55.075Z,101831.78
2023-09-06T21:13:23.164Z,101842.25
2023-09-06T21:15:53.249Z,101840.91
2023-09-06T21:18:22.605Z,101847.53
2023-09-06T21:20:50.555Z,101848.94
2023-09-06T21:23:18.412Z,101842.97
2023-09-06T21:25:46.364Z,101855.00
2023-09-06T21:28:14.229Z,101855.59
2023-09-06T21:30:43.155Z,101854.25
2023-09-06T21:33:10.950Z,101852.09
2023-09-06T21:35:43.856Z,101859.28
2023-09-06T21:38:12.513Z,101858.75
2023-09-06T21:40:41.783Z,101861.25
2023-09-06T21:43:17.791Z,101861.56
2023-09-06T21:45:46.750Z,101862.94
2023-09-06T21:48:15.142Z,101861.31
2023-09-06T21:50:50.119Z,101856.69
2023-09-06T21:53:18.071Z,101868.22
2023-09-06T21:55:45.796Z,101874.00
2023-09-06T21:58:13.999Z,101873.47
2023-09-06T22:00:41.796Z,101877.31
2023-09-06T22:03:09.659Z,101878.16
2023-09-06T22:05:37.468Z,101876.78
2023-09-06T22:08:07.117Z,101873.22
2023-09-06T22:10:34.833Z,101864.44
2023-09-06T22:13:03.821Z,101873.81
2023-09-06T22:15:31.663Z,101868.59
2023-09-06T22:17:59.858Z,101873.28
2023-09-06T22:20:31.330Z,101865.63
2023-09-06T22:22:59.413Z,101862.88
2023-09-06T22:25:29.129Z,101863.16
2023-09-06T22:27:58.495Z,101868.13
2023-09-06T22:30:26.347Z,101866.50
2023-09-06T22:32:54.185Z,101865.94
2023-09-06T22:35:22.052Z,101849.56
2023-09-06T22:37:49.867Z,101868.44
2023-09-06T22:40:17.909Z,101867.09
2023-09-06T22:42:47.083Z,101864.34
2023-09-06T22:45:15.323Z,101863.00
2023-09-06T22:47:43.166Z,101862.19
2023-09-06T22:50:12.048Z,101858.38
2023-09-06T22:52:42.363Z,101855.91
2023-09-06T22:55:11.719Z,101858.13
2023-09-06T22:57:39.992Z,101856.50
2023-09-06T23:00:12.156Z,101859.81
2023-09-06T23:02:40.060Z,101847.22
2023-09-06T23:05:10.316Z,101845.34
2023-09-06T23:07:38.319Z,101850.25
2023-09-06T23:10:07.101Z,101851.94
2023-09-06T23:12:34.951Z,101850.59
2023-09-06T23:15:04.766Z,101850.06
2023-09-06T23:17:38.518Z,101844.84
2023-09-06T23:20:14.920Z,101849.00
2023-09-06T23:22:45.637Z,101852.84
2023-09-06T23:25:16.024Z,101855.06
2023-09-06T23:27:46.034Z,101852.59
2023-09-06T23:30:18.149Z,101848.50
2023-09-06T23:32:51.648Z,101849.06
2023-09-06T23:35:21.714Z,101845.78
2023-09-06T23:37:51.429Z,101844.16
2023-09-06T23:40:23.667Z,101841.97
2023-09-06T23:42:54.403Z,101838.69
2023-09-06T23:45:24.288Z,101837.34
2023-09-06T23:47:56.550Z,101841.19
2023-09-06T23:50:27.089Z,101834.63
2023-09-06T23:52:57.153Z,101831.06
2023-09-06T23:55:25.783Z,101828.34
2023-09-06T23:57:53.789Z,101836.84
